^^
Meteo Knjazevac Station Historical Data
Daily Summary for July 8, 2021 Units:  Both    English   Metric
Daily Weekly Monthly Yearly Custom
  High: Low: Average:
Temperature: 98.8 °F /  37.1 °C 55.9 °F /  13.3 °C 77 °F /  25 °C
Dew Point: 67.9 °F /  19.9 °C 53 °F /  11.7 °C 60.8 °F /  16 °C
Humidity: 91% 33% 62%
Wind Speed: 6mph /  9.7km/h - 1.8mph /  2.9km/h
Wind Gust: 10mph /  16.1km/h - -
Wind- - SW
Pressure: 30.06 in /  1017.8 hPa 29.99 in /  1015.5 hPa -
Precipitation: 0.00 in /  0 mm    
Historical Graphs
 
 
Tabular Data for July 8, 2021
Time Temperature Dew Point Pressure Wind Wind Speed Wind Gust Humidity Rainfall Rate (Hourly) solar Conditions
00:00 63.7 °F /  17.6 °C 57 °F /  13.9 °C 30.01in /  1016.1hPa WSW 2mph /  3.2km/h 5mph /  8km/h 79% 0.00in /  0mm 0 W/m2
00:10 63.4 °F /  17.4 °C 56.8 °F /  13.8 °C 30.02in /  1016.5hPa West 2mph /  3.2km/h 3mph /  4.8km/h 79% 0.00in /  0mm 0 W/m2
00:20 62.8 °F /  17.1 °C 56.5 °F /  13.6 °C 30.02in /  1016.5hPa WSW 2mph /  3.2km/h 5mph /  8km/h 80% 0.00in /  0mm 0 W/m2
00:30 62.2 °F /  16.8 °C 56 °F /  13.3 °C 30.02in /  1016.5hPa SW 1mph /  1.6km/h 3mph /  4.8km/h 80% 0.00in /  0mm 0 W/m2
00:40 61.7 °F /  16.5 °C 55.8 °F /  13.2 °C 30.02in /  1016.5hPa West 3mph /  4.8km/h 5mph /  8km/h 81% 0.00in /  0mm 0 W/m2
00:50 61.4 °F /  16.3 °C 55.5 °F /  13.1 °C 30.02in /  1016.5hPa West 3mph /  4.8km/h 5mph /  8km/h 81% 0.00in /  0mm 0 W/m2
01:00 61.3 °F /  16.3 °C 55.5 °F /  13.1 °C 30.02in /  1016.5hPa West 3mph /  4.8km/h 5mph /  8km/h 81% 0.00in /  0mm 0 W/m2
01:10 61.3 °F /  16.3 °C 56.1 °F /  13.4 °C 30.02in /  1016.5hPa WNW 2mph /  3.2km/h 4mph /  6.4km/h 83% 0.00in /  0mm 0 W/m2
01:20 61.3 °F /  16.3 °C 56.1 °F /  13.4 °C 30.03in /  1016.8hPa WNW 2mph /  3.2km/h 6mph /  9.7km/h 83% 0.00in /  0mm 0 W/m2
01:30 61 °F /  16.1 °C 55.8 °F /  13.2 °C 30.03in /  1016.8hPa West 2mph /  3.2km/h 5mph /  8km/h 83% 0.00in /  0mm 0 W/m2
01:40 60.8 °F /  16 °C 55.6 °F /  13.1 °C 30.03in /  1016.8hPa Calm   5mph /  8km/h 83% 0.00in /  0mm 0 W/m2
01:50 60.3 °F /  15.7 °C 55.1 °F /  12.8 °C 30.03in /  1016.8hPa WSW 2mph /  3.2km/h 2mph /  3.2km/h 83% 0.00in /  0mm 0 W/m2
02:00 59.6 °F /  15.3 °C 54.8 °F /  12.7 °C 30.03in /  1016.8hPa West 3mph /  4.8km/h 6mph /  9.7km/h 84% 0.00in /  0mm 0 W/m2
02:10 59.5 °F /  15.3 °C 55 °F /  12.8 °C 30.03in /  1016.8hPa WNW 3mph /  4.8km/h 6mph /  9.7km/h 85% 0.00in /  0mm 0 W/m2
02:20 59.5 °F /  15.3 °C 55 °F /  12.8 °C 30.03in /  1016.8hPa West 2mph /  3.2km/h 5mph /  8km/h 85% 0.00in /  0mm 0 W/m2
02:30 59.5 °F /  15.3 °C 55 °F /  12.8 °C 30.03in /  1016.8hPa West 2mph /  3.2km/h 4mph /  6.4km/h 85% 0.00in /  0mm 0 W/m2
02:40 59.2 °F /  15.1 °C 54.7 °F /  12.6 °C 30.03in /  1016.8hPa West 3mph /  4.8km/h 6mph /  9.7km/h 85% 0.00in /  0mm 0 W/m2
02:50 58.8 °F /  14.9 °C 54.3 °F /  12.4 °C 30.03in /  1016.8hPa West 1mph /  1.6km/h 6mph /  9.7km/h 85% 0.00in /  0mm 0 W/m2
03:00 58.5 °F /  14.7 °C 54.3 °F /  12.4 °C 30.04in /  1017.2hPa WSW 2mph /  3.2km/h 3mph /  4.8km/h 86% 0.00in /  0mm 0 W/m2
03:10 58.1 °F /  14.5 °C 53.9 °F /  12.2 °C 30.03in /  1016.8hPa West 3mph /  4.8km/h 5mph /  8km/h 86% 0.00in /  0mm 0 W/m2
03:20 58 °F /  14.4 °C 53.8 °F /  12.1 °C 30.03in /  1016.8hPa West 2mph /  3.2km/h 5mph /  8km/h 86% 0.00in /  0mm 0 W/m2
03:30 57.9 °F /  14.4 °C 54.4 °F /  12.4 °C 30.04in /  1017.2hPa West 3mph /  4.8km/h 6mph /  9.7km/h 88% 0.00in /  0mm 0 W/m2
03:40 57.9 °F /  14.4 °C 54.4 °F /  12.4 °C 30.04in /  1017.2hPa West 3mph /  4.8km/h 6mph /  9.7km/h 88% 0.00in /  0mm 0 W/m2
03:50 57.7 °F /  14.3 °C 54.2 °F /  12.3 °C 30.03in /  1016.8hPa WSW 3mph /  4.8km/h 5mph /  8km/h 88% 0.00in /  0mm 0 W/m2
04:00 57.4 °F /  14.1 °C 53.9 °F /  12.2 °C 30.03in /  1016.8hPa West 2mph /  3.2km/h 5mph /  8km/h 88% 0.00in /  0mm 0 W/m2
04:10 57 °F /  13.9 °C 53.8 °F /  12.1 °C 30.04in /  1017.2hPa WSW 1mph /  1.6km/h 3mph /  4.8km/h 89% 0.00in /  0mm 0 W/m2
04:20 56.8 °F /  13.8 °C 53.6 °F /  12 °C 30.03in /  1016.8hPa Calm   3mph /  4.8km/h 89% 0.00in /  0mm 0 W/m2
04:30 56.8 °F /  13.8 °C 53.6 °F /  12 °C 30.04in /  1017.2hPa WNW 1mph /  1.6km/h 3mph /  4.8km/h 89% 0.00in /  0mm 0 W/m2
04:40 56.8 °F /  13.8 °C 53.6 °F /  12 °C 30.04in /  1017.2hPa NW 1mph /  1.6km/h 3mph /  4.8km/h 89% 0.00in /  0mm 0 W/m2
04:50 56.8 °F /  13.8 °C 53.6 °F /  12 °C 30.04in /  1017.2hPa West 1mph /  1.6km/h 3mph /  4.8km/h 89% 0.00in /  0mm 0 W/m2
05:00 56.7 °F /  13.7 °C 53.5 °F /  11.9 °C 30.04in /  1017.2hPa West 2mph /  3.2km/h 3mph /  4.8km/h 89% 0.00in /  0mm 0 W/m2
05:10 56.7 °F /  13.7 °C 53.8 °F /  12.1 °C 30.05in /  1017.5hPa WNW 1mph /  1.6km/h 5mph /  8km/h 90% 0.00in /  0mm 0 W/m2
05:20 56.6 °F /  13.7 °C 53.4 °F /  11.9 °C 30.05in /  1017.5hPa West 1mph /  1.6km/h 2mph /  3.2km/h 89% 0.00in /  0mm 0 W/m2
05:30 56.3 °F /  13.5 °C 53.4 °F /  11.9 °C 30.05in /  1017.5hPa West 2mph /  3.2km/h 3mph /  4.8km/h 90% 0.00in /  0mm 5 W/m2
05:40 56.3 °F /  13.5 °C 53.4 °F /  11.9 °C 30.05in /  1017.5hPa WNW 1mph /  1.6km/h 3mph /  4.8km/h 90% 0.00in /  0mm 11 W/m2
05:50 56.1 °F /  13.4 °C 53.2 °F /  11.8 °C 30.05in /  1017.5hPa West 1mph /  1.6km/h 2mph /  3.2km/h 90% 0.00in /  0mm 19 W/m2
06:00 56 °F /  13.3 °C 53.1 °F /  11.7 °C 30.06in /  1017.8hPa West 1mph /  1.6km/h 2mph /  3.2km/h 90% 0.00in /  0mm 27 W/m2
06:10 55.9 °F /  13.3 °C 53 °F /  11.7 °C 30.06in /  1017.8hPa West 1mph /  1.6km/h 3mph /  4.8km/h 90% 0.00in /  0mm 54 W/m2
06:20 55.9 °F /  13.3 °C 53.4 °F /  11.9 °C 30.06in /  1017.8hPa West 2mph /  3.2km/h 4mph /  6.4km/h 91% 0.00in /  0mm 76 W/m2
06:30 56.1 °F /  13.4 °C 53.5 °F /  11.9 °C 30.06in /  1017.8hPa West 3mph /  4.8km/h 5mph /  8km/h 91% 0.00in /  0mm 100 W/m2
06:40 56.4 °F /  13.6 °C 53.8 °F /  12.1 °C 30.06in /  1017.8hPa West 3mph /  4.8km/h 5mph /  8km/h 91% 0.00in /  0mm 127 W/m2
06:50 57 °F /  13.9 °C 54.4 °F /  12.4 °C 30.06in /  1017.8hPa West 3mph /  4.8km/h 5mph /  8km/h 91% 0.00in /  0mm 155 W/m2
07:00 57.5 °F /  14.2 °C 54.9 °F /  12.7 °C 30.06in /  1017.8hPa West 2mph /  3.2km/h 4mph /  6.4km/h 91% 0.00in /  0mm 184 W/m2
07:10 57.9 °F /  14.4 °C 55 °F /  12.8 °C 30.06in /  1017.8hPa NW 2mph /  3.2km/h 4mph /  6.4km/h 90% 0.00in /  0mm 215 W/m2
07:20 58.6 °F /  14.8 °C 55.7 °F /  13.2 °C 30.06in /  1017.8hPa West 1mph /  1.6km/h 2mph /  3.2km/h 90% 0.00in /  0mm 247 W/m2
07:30 59.4 °F /  15.2 °C 56.4 °F /  13.6 °C 30.06in /  1017.8hPa West 3mph /  4.8km/h 5mph /  8km/h 90% 0.00in /  0mm 280 W/m2
07:40 60.2 °F /  15.7 °C 57 °F /  13.9 °C 30.06in /  1017.8hPa WNW 2mph /  3.2km/h 5mph /  8km/h 89% 0.00in /  0mm 314 W/m2
07:50 61.3 °F /  16.3 °C 58.4 °F /  14.7 °C 30.06in /  1017.8hPa West 1mph /  1.6km/h 4mph /  6.4km/h 90% 0.00in /  0mm 349 W/m2
08:00 62.2 °F /  16.8 °C 59 °F /  15 °C 30.06in /  1017.8hPa WSW 2mph /  3.2km/h 3mph /  4.8km/h 89% 0.00in /  0mm 385 W/m2
08:10 63.3 °F /  17.4 °C 60 °F /  15.6 °C 30.06in /  1017.8hPa West 1mph /  1.6km/h 3mph /  4.8km/h 89% 0.00in /  0mm 418 W/m2
08:20 64.4 °F /  18 °C 60.7 °F /  15.9 °C 30.06in /  1017.8hPa West 1mph /  1.6km/h 3mph /  4.8km/h 88% 0.00in /  0mm 461 W/m2
08:30 65.4 °F /  18.6 °C 60.8 °F /  16 °C 30.06in /  1017.8hPa West 1mph /  1.6km/h 3mph /  4.8km/h 85% 0.00in /  0mm 498 W/m2
08:40 66.7 °F /  19.3 °C 60.7 °F /  15.9 °C 30.06in /  1017.8hPa WNW 1mph /  1.6km/h 3mph /  4.8km/h 81% 0.00in /  0mm 528 W/m2
08:50 68.1 °F /  20.1 °C 61 °F /  16.1 °C 30.06in /  1017.8hPa SW 1mph /  1.6km/h 3mph /  4.8km/h 78% 0.00in /  0mm 557 W/m2
09:00 70.1 °F /  21.2 °C 61.8 °F /  16.6 °C 30.06in /  1017.8hPa SW 1mph /  1.6km/h 3mph /  4.8km/h 75% 0.00in /  0mm 585 W/m2
09:10 72.8 °F /  22.7 °C 62.5 °F /  16.9 °C 30.06in /  1017.8hPa WSW 1mph /  1.6km/h 3mph /  4.8km/h 70% 0.00in /  0mm 613 W/m2
09:20 75.3 °F /  24.1 °C 64 °F /  17.8 °C 30.06in /  1017.8hPa South 1mph /  1.6km/h 4mph /  6.4km/h 68% 0.00in /  0mm 639 W/m2
09:30 77.4 °F /  25.2 °C 63.8 °F /  17.7 °C 30.05in /  1017.5hPa SSW 1mph /  1.6km/h 4mph /  6.4km/h 63% 0.00in /  0mm 665 W/m2
09:40 79.1 °F /  26.2 °C 64 °F /  17.8 °C 30.06in /  1017.8hPa South 2mph /  3.2km/h 5mph /  8km/h 60% 0.00in /  0mm 690 W/m2
09:50 80.6 °F /  27 °C 64.9 °F /  18.3 °C 30.06in /  1017.8hPa Calm   4mph /  6.4km/h 59% 0.00in /  0mm 714 W/m2
10:00 81.9 °F /  27.7 °C 65.1 °F /  18.4 °C 30.06in /  1017.8hPa SSE 1mph /  1.6km/h 3mph /  4.8km/h 57% 0.00in /  0mm 736 W/m2
10:10 83.1 °F /  28.4 °C 64.7 °F /  18.2 °C 30.05in /  1017.5hPa Calm   3mph /  4.8km/h 54% 0.00in /  0mm 758 W/m2
10:20 84 °F /  28.9 °C 67.1 °F /  19.5 °C 30.05in /  1017.5hPa Calm   5mph /  8km/h 57% 0.00in /  0mm 778 W/m2
10:30 84.9 °F /  29.4 °C 65.8 °F /  18.8 °C 30.05in /  1017.5hPa NE 2mph /  3.2km/h 7mph /  11.3km/h 53% 0.00in /  0mm 798 W/m2
10:40 85.5 °F /  29.7 °C 66.9 °F /  19.4 °C 30.05in /  1017.5hPa North 2mph /  3.2km/h 6mph /  9.7km/h 54% 0.00in /  0mm 815 W/m2
10:50 86.5 °F /  30.3 °C 67.4 °F /  19.7 °C 30.05in /  1017.5hPa NNE 2mph /  3.2km/h 6mph /  9.7km/h 53% 0.00in /  0mm 175 W/m2
11:00 87.1 °F /  30.6 °C 67.3 °F /  19.6 °C 30.05in /  1017.5hPa NNE 1mph /  1.6km/h 6mph /  9.7km/h 52% 0.00in /  0mm 847 W/m2
11:10 88 °F /  31.1 °C 66.4 °F /  19.1 °C 30.04in /  1017.2hPa North 3mph /  4.8km/h 9mph /  14.5km/h 49% 0.00in /  0mm 458 W/m2
11:20 88.5 °F /  31.4 °C 65.7 °F /  18.7 °C 30.04in /  1017.2hPa NNE 2mph /  3.2km/h 8mph /  12.9km/h 47% 0.00in /  0mm 873 W/m2
11:30 89.2 °F /  31.8 °C 65.1 °F /  18.4 °C 30.04in /  1017.2hPa NNE 1mph /  1.6km/h 7mph /  11.3km/h 45% 0.00in /  0mm 884 W/m2
11:40 89.6 °F /  32 °C 65.4 °F /  18.6 °C 30.04in /  1017.2hPa North 2mph /  3.2km/h 6mph /  9.7km/h 45% 0.00in /  0mm 893 W/m2
11:50 90.3 °F /  32.4 °C 66.1 °F /  18.9 °C 30.04in /  1017.2hPa NE 3mph /  4.8km/h 7mph /  11.3km/h 45% 0.00in /  0mm 901 W/m2
12:00 91 °F /  32.8 °C 66.1 °F /  18.9 °C 30.04in /  1017.2hPa ENE 3mph /  4.8km/h 7mph /  11.3km/h 44% 0.00in /  0mm 907 W/m2
12:10 91.2 °F /  32.9 °C 64.9 °F /  18.3 °C 30.04in /  1017.2hPa North 3mph /  4.8km/h 5mph /  8km/h 42% 0.00in /  0mm 912 W/m2
12:20 91.8 °F /  33.2 °C 66.1 °F /  18.9 °C 30.04in /  1017.2hPa North 1mph /  1.6km/h 8mph /  12.9km/h 43% 0.00in /  0mm 915 W/m2
12:30 92.5 °F /  33.6 °C 64.6 °F /  18.1 °C 30.03in /  1016.8hPa NNE 2mph /  3.2km/h 7mph /  11.3km/h 40% 0.00in /  0mm 916 W/m2
12:40 92.8 °F /  33.8 °C 65 °F /  18.3 °C 30.03in /  1016.8hPa NNE 2mph /  3.2km/h 6mph /  9.7km/h 40% 0.00in /  0mm 916 W/m2
12:50 93.4 °F /  34.1 °C 65.4 °F /  18.6 °C 30.03in /  1016.8hPa East 5mph /  8km/h 7mph /  11.3km/h 40% 0.00in /  0mm 915 W/m2
13:00 93.9 °F /  34.4 °C 65.2 °F /  18.4 °C 30.02in /  1016.5hPa North 2mph /  3.2km/h 8mph /  12.9km/h 39% 0.00in /  0mm 912 W/m2
13:10 94.5 °F /  34.7 °C 65.7 °F /  18.7 °C 30.02in /  1016.5hPa North 3mph /  4.8km/h 8mph /  12.9km/h 39% 0.00in /  0mm 907 W/m2
13:20 94.5 °F /  34.7 °C 64.9 °F /  18.3 °C 30.02in /  1016.5hPa NW 5mph /  8km/h 9mph /  14.5km/h 38% 0.00in /  0mm 901 W/m2
13:30 94.8 °F /  34.9 °C 64.5 °F /  18.1 °C 30.02in /  1016.5hPa WSW 2mph /  3.2km/h 7mph /  11.3km/h 37% 0.00in /  0mm 893 W/m2
13:40 95 °F /  35 °C 64.6 °F /  18.1 °C 30.02in /  1016.5hPa WSW 2mph /  3.2km/h 6mph /  9.7km/h 37% 0.00in /  0mm 884 W/m2
13:50 95 °F /  35 °C 64.6 °F /  18.1 °C 30.02in /  1016.5hPa WNW 2mph /  3.2km/h 7mph /  11.3km/h 37% 0.00in /  0mm 873 W/m2
14:00 95.5 °F /  35.3 °C 65.1 °F /  18.4 °C 30.01in /  1016.1hPa ENE 5mph /  8km/h 9mph /  14.5km/h 37% 0.00in /  0mm 860 W/m2
14:10 95.7 °F /  35.4 °C 63.7 °F /  17.6 °C 30.01in /  1016.1hPa SSE 6mph /  9.7km/h 10mph /  16.1km/h 35% 0.00in /  0mm 847 W/m2
14:20 95.9 °F /  35.5 °C 63.8 °F /  17.7 °C 30.01in /  1016.1hPa East 2mph /  3.2km/h 6mph /  9.7km/h 35% 0.00in /  0mm 831 W/m2
14:30 96.4 °F /  35.8 °C 65.9 °F /  18.8 °C 30.01in /  1016.1hPa East 3mph /  4.8km/h 6mph /  9.7km/h 37% 0.00in /  0mm 815 W/m2
14:40 96.4 °F /  35.8 °C 64.3 °F /  17.9 °C 30.01in /  1016.1hPa SSE 5mph /  8km/h 9mph /  14.5km/h 35% 0.00in /  0mm 797 W/m2
14:50 96.4 °F /  35.8 °C 63.5 °F /  17.5 °C 30.01in /  1016.1hPa SSE 5mph /  8km/h 8mph /  12.9km/h 34% 0.00in /  0mm 778 W/m2
15:00 96.6 °F /  35.9 °C 63.6 °F /  17.6 °C 30.00in /  1015.8hPa SSW 6mph /  9.7km/h 7mph /  11.3km/h 34% 0.00in /  0mm 757 W/m2
15:10 97 °F /  36.1 °C 64.8 °F /  18.2 °C 30.00in /  1015.8hPa SSW 2mph /  3.2km/h 7mph /  11.3km/h 35% 0.00in /  0mm 736 W/m2
15:20 97.5 °F /  36.4 °C 64.4 °F /  18 °C 30.00in /  1015.8hPa ESE 3mph /  4.8km/h 7mph /  11.3km/h 34% 0.00in /  0mm 713 W/m2
15:30 97.7 °F /  36.5 °C 64.6 °F /  18.1 °C 30.00in /  1015.8hPa SE 1mph /  1.6km/h 7mph /  11.3km/h 34% 0.00in /  0mm 689 W/m2
15:40 97.9 °F /  36.6 °C 65.6 °F /  18.7 °C 30.00in /  1015.8hPa WSW 2mph /  3.2km/h 5mph /  8km/h 35% 0.00in /  0mm 664 W/m2
15:50 97.9 °F /  36.6 °C 63.9 °F /  17.7 °C 30.00in /  1015.8hPa SSW 1mph /  1.6km/h 6mph /  9.7km/h 33% 0.00in /  0mm 639 W/m2
16:00 98.1 °F /  36.7 °C 64.9 °F /  18.3 °C 30.00in /  1015.8hPa South 3mph /  4.8km/h 5mph /  8km/h 34% 0.00in /  0mm 612 W/m2
16:10 98.1 °F /  36.7 °C 64.9 °F /  18.3 °C 30.00in /  1015.8hPa SSW 1mph /  1.6km/h 5mph /  8km/h 34% 0.00in /  0mm 584 W/m2
16:20 98.1 °F /  36.7 °C 64.9 °F /  18.3 °C 30.00in /  1015.8hPa NW 2mph /  3.2km/h 6mph /  9.7km/h 34% 0.00in /  0mm 556 W/m2
16:30 98.2 °F /  36.8 °C 64.2 °F /  17.9 °C 30.00in /  1015.8hPa SW 1mph /  1.6km/h 6mph /  9.7km/h 33% 0.00in /  0mm 527 W/m2
16:40 98.2 °F /  36.8 °C 65.1 °F /  18.4 °C 30.00in /  1015.8hPa SE 1mph /  1.6km/h 5mph /  8km/h 34% 0.00in /  0mm 497 W/m2
16:50 98.6 °F /  37 °C 64.5 °F /  18.1 °C 30.00in /  1015.8hPa SW 1mph /  1.6km/h 4mph /  6.4km/h 33% 0.00in /  0mm 467 W/m2
17:00 98.4 °F /  36.9 °C 64.4 °F /  18 °C 30.00in /  1015.8hPa SW 1mph /  1.6km/h 5mph /  8km/h 33% 0.00in /  0mm 437 W/m2
17:10 98.8 °F /  37.1 °C 65.5 °F /  18.6 °C 30.00in /  1015.8hPa WSW 1mph /  1.6km/h 4mph /  6.4km/h 34% 0.00in /  0mm 399 W/m2
17:20 98.2 °F /  36.8 °C 64.2 °F /  17.9 °C 30.00in /  1015.8hPa WSW 2mph /  3.2km/h 3mph /  4.8km/h 33% 0.00in /  0mm 365 W/m2
17:30 98.2 °F /  36.8 °C 65.1 °F /  18.4 °C 30.00in /  1015.8hPa SW 2mph /  3.2km/h 5mph /  8km/h 34% 0.00in /  0mm 331 W/m2
17:50 97.9 °F /  36.6 °C 63.9 °F /  17.7 °C 29.99in /  1015.5hPa WNW 2mph /  3.2km/h 3mph /  4.8km/h 33% 0.00in /  0mm 261 W/m2
18:00 97.7 °F /  36.5 °C 63.7 °F /  17.6 °C 29.99in /  1015.5hPa WSW 1mph /  1.6km/h 3mph /  4.8km/h 33% 0.00in /  0mm 228 W/m2
18:10 97.5 °F /  36.4 °C 63.6 °F /  17.6 °C 29.99in /  1015.5hPa SW 2mph /  3.2km/h 3mph /  4.8km/h 33% 0.00in /  0mm 199 W/m2
18:20 97.3 °F /  36.3 °C 63.4 °F /  17.4 °C 29.99in /  1015.5hPa WSW 1mph /  1.6km/h 3mph /  4.8km/h 33% 0.00in /  0mm 168 W/m2
18:30 96.8 °F /  36 °C 63 °F /  17.2 °C 30.00in /  1015.8hPa SW 1mph /  1.6km/h 4mph /  6.4km/h 33% 0.00in /  0mm 140 W/m2
18:40 96.5 °F /  35.8 °C 63.5 °F /  17.5 °C 29.99in /  1015.5hPa SSW 1mph /  1.6km/h 2mph /  3.2km/h 34% 0.00in /  0mm 111 W/m2
18:50 95.4 °F /  35.2 °C 65.7 °F /  18.7 °C 30.00in /  1015.8hPa South 1mph /  1.6km/h 3mph /  4.8km/h 38% 0.00in /  0mm 85 W/m2
19:00 94.5 °F /  34.7 °C 67.8 °F /  19.9 °C 30.00in /  1015.8hPa Calm   2mph /  3.2km/h 42% 0.00in /  0mm 62 W/m2
19:10 93 °F /  33.9 °C 67.9 °F /  19.9 °C 30.00in /  1015.8hPa SW 1mph /  1.6km/h 2mph /  3.2km/h 44% 0.00in /  0mm 42 W/m2
19:20 91.2 °F /  32.9 °C 66.9 °F /  19.4 °C 30.00in /  1015.8hPa SW 1mph /  1.6km/h 3mph /  4.8km/h 45% 0.00in /  0mm 26 W/m2
19:30 89.4 °F /  31.9 °C 66.5 °F /  19.2 °C 30.00in /  1015.8hPa South 1mph /  1.6km/h 5mph /  8km/h 47% 0.00in /  0mm 14 W/m2
19:40 88.3 °F /  31.3 °C 66.8 °F /  19.3 °C 30.00in /  1015.8hPa Calm   2mph /  3.2km/h 49% 0.00in /  0mm 7 W/m2
19:50 87.1 °F /  30.6 °C 66.2 °F /  19 °C 30.01in /  1016.1hPa East 2mph /  3.2km/h 3mph /  4.8km/h 50% 0.00in /  0mm 0 W/m2
20:00 85.7 °F /  29.8 °C 66.6 °F /  19.2 °C 30.01in /  1016.1hPa SW 1mph /  1.6km/h 2mph /  3.2km/h 53% 0.00in /  0mm 0 W/m2
20:10 84.6 °F /  29.2 °C 65.5 °F /  18.6 °C 30.01in /  1016.1hPa SSW 2mph /  3.2km/h 4mph /  6.4km/h 53% 0.00in /  0mm 0 W/m2
20:20 83.1 °F /  28.4 °C 64.8 °F /  18.2 °C 30.02in /  1016.5hPa WSW 2mph /  3.2km/h 4mph /  6.4km/h 54% 0.00in /  0mm 0 W/m2
20:30 82.1 °F /  27.8 °C 64.3 °F /  17.9 °C 30.02in /  1016.5hPa WSW 2mph /  3.2km/h 4mph /  6.4km/h 55% 0.00in /  0mm 0 W/m2
20:40 80.8 °F /  27.1 °C 64.1 °F /  17.8 °C 30.03in /  1016.8hPa WSW 3mph /  4.8km/h 4mph /  6.4km/h 57% 0.00in /  0mm 0 W/m2
20:50 79.7 °F /  26.5 °C 63.1 °F /  17.3 °C 30.03in /  1016.8hPa WSW 2mph /  3.2km/h 5mph /  8km/h 57% 0.00in /  0mm 0 W/m2
21:00 78.4 °F /  25.8 °C 61.9 °F /  16.6 °C 30.04in /  1017.2hPa WSW 2mph /  3.2km/h 5mph /  8km/h 57% 0.00in /  0mm 0 W/m2
21:10 77.5 °F /  25.3 °C 61.6 °F /  16.4 °C 30.04in /  1017.2hPa West 3mph /  4.8km/h 6mph /  9.7km/h 58% 0.00in /  0mm 0 W/m2
21:20 77 °F /  25 °C 60.6 °F /  15.9 °C 30.04in /  1017.2hPa West 3mph /  4.8km/h 5mph /  8km/h 57% 0.00in /  0mm 0 W/m2
21:30 76.3 °F /  24.6 °C 60.9 °F /  16.1 °C 30.04in /  1017.2hPa West 2mph /  3.2km/h 4mph /  6.4km/h 59% 0.00in /  0mm 0 W/m2
21:40 75.8 °F /  24.3 °C 60.9 °F /  16.1 °C 30.04in /  1017.2hPa West 2mph /  3.2km/h 5mph /  8km/h 60% 0.00in /  0mm 0 W/m2
21:50 75 °F /  23.9 °C 61.6 °F /  16.4 °C 30.04in /  1017.2hPa WSW 1mph /  1.6km/h 2mph /  3.2km/h 63% 0.00in /  0mm 0 W/m2
22:00 74.5 °F /  23.6 °C 61.1 °F /  16.2 °C 30.04in /  1017.2hPa Calm   2mph /  3.2km/h 63% 0.00in /  0mm 0 W/m2
22:10 74.1 °F /  23.4 °C 61.2 °F /  16.2 °C 30.04in /  1017.2hPa WNW 1mph /  1.6km/h 2mph /  3.2km/h 64% 0.00in /  0mm 0 W/m2
22:20 73.4 °F /  23 °C 60.9 °F /  16.1 °C 30.04in /  1017.2hPa West 1mph /  1.6km/h 2mph /  3.2km/h 65% 0.00in /  0mm 0 W/m2
22:30 73 °F /  22.8 °C 60.6 °F /  15.9 °C 30.04in /  1017.2hPa Calm   3mph /  4.8km/h 65% 0.00in /  0mm 0 W/m2
22:40 72.7 °F /  22.6 °C 60.2 °F /  15.7 °C 30.04in /  1017.2hPa Calm   2mph /  3.2km/h 65% 0.00in /  0mm 0 W/m2
22:50 72.3 °F /  22.4 °C 60.7 °F /  15.9 °C 30.04in /  1017.2hPa Calm   1mph /  1.6km/h 67% 0.00in /  0mm 0 W/m2
23:00 71.8 °F /  22.1 °C 60.7 °F /  15.9 °C 30.04in /  1017.2hPa NW 1mph /  1.6km/h 2mph /  3.2km/h 68% 0.00in /  0mm 0 W/m2
23:10 71.1 °F /  21.7 °C 60.4 °F /  15.8 °C 30.05in /  1017.5hPa West 1mph /  1.6km/h 3mph /  4.8km/h 69% 0.00in /  0mm 0 W/m2
23:20 70.5 °F /  21.4 °C 59.8 °F /  15.4 °C 30.05in /  1017.5hPa Calm   5mph /  8km/h 69% 0.00in /  0mm 0 W/m2
23:30 70 °F /  21.1 °C 59.7 °F /  15.4 °C 30.05in /  1017.5hPa WSW 1mph /  1.6km/h 3mph /  4.8km/h 70% 0.00in /  0mm 0 W/m2
23:40 69.3 °F /  20.7 °C 59.8 °F /  15.4 °C 30.05in /  1017.5hPa WSW 1mph /  1.6km/h 2mph /  3.2km/h 72% 0.00in /  0mm 0 W/m2
23:50 68.9 °F /  20.5 °C 59.9 °F /  15.5 °C 30.06in /  1017.8hPa WNW 3mph /  4.8km/h 5mph /  8km/h 73% 0.00in /  0mm 0 W/m2
Knjazevac, Serbia
Compliments of Weather Underground - 2 mb